createdAt,value
2022-10-24T00:02:13.760Z,12.70
2022-10-24T00:07:16.058Z,16.63
2022-10-24T00:12:19.486Z,7.00
2022-10-24T00:17:21.521Z,8.70
2022-10-24T00:22:23.288Z,17.83
2022-10-24T00:27:25.484Z,17.80
2022-10-24T00:32:27.352Z,17.02
2022-10-24T00:37:29.145Z,13.27
2022-10-24T00:42:30.988Z,17.63
2022-10-24T00:47:32.854Z,20.92
2022-10-24T00:52:40.221Z,21.02
2022-10-24T00:57:55.096Z,19.02
2022-10-24T01:02:57.474Z,7.88
2022-10-24T01:08:09.977Z,40.17
2022-10-24T01:13:40.075Z,11.60
2022-10-24T01:19:32.904Z,24.33
2022-10-24T01:24:46.491Z,31.27
2022-10-24T01:30:13.241Z,10.60
2022-10-24T01:35:36.162Z,14.23
2022-10-24T01:40:48.798Z,20.83
2022-10-24T01:46:04.251Z,15.57
2022-10-24T01:51:08.310Z,21.63
2022-10-24T01:56:10.349Z,16.90
2022-10-24T02:01:22.312Z,11.77
2022-10-24T02:06:26.717Z,21.33
2022-10-24T02:11:28.609Z,14.63
2022-10-24T02:16:31.181Z,21.05
2022-10-24T02:21:55.780Z,19.45
2022-10-24T02:27:03.730Z,22.10
2022-10-24T02:32:09.514Z,21.02
2022-10-24T02:37:13.743Z,11.85
2022-10-24T02:42:19.581Z,19.25
2022-10-24T02:47:24.620Z,17.10
2022-10-24T02:52:27.148Z,27.60
2022-10-24T02:57:29.134Z,22.55
2022-10-24T03:02:30.922Z,12.05
2022-10-24T03:07:32.752Z,15.93
2022-10-24T03:12:34.591Z,25.95
2022-10-24T03:17:36.370Z,22.40
2022-10-24T03:22:38.209Z,16.92
2022-10-24T03:27:40.034Z,17.02
2022-10-24T03:32:42.010Z,14.45
2022-10-24T03:37:44.078Z,15.02
2022-10-24T03:42:46.176Z,29.25
2022-10-24T03:47:48.296Z,16.85
2022-10-24T03:52:50.145Z,10.20
2022-10-24T03:57:52.332Z,19.25
2022-10-24T04:02:54.323Z,10.60
2022-10-24T04:07:56.322Z,17.98
2022-10-24T04:12:58.151Z,14.35
2022-10-24T04:17:59.981Z,14.00
2022-10-24T04:23:04.401Z,12.52
2022-10-24T04:28:06.876Z,6.97
2022-10-24T04:33:08.701Z,16.02
2022-10-24T04:38:10.515Z,7.65
2022-10-24T04:43:12.354Z,14.25
2022-10-24T04:48:15.254Z,19.63
2022-10-24T04:53:17.055Z,18.17
2022-10-24T04:58:18.913Z,12.10
2022-10-24T05:03:23.383Z,12.30
2022-10-24T05:08:25.237Z,6.22
2022-10-24T05:13:26.984Z,7.03
2022-10-24T05:18:28.887Z,6.68
2022-10-24T05:23:30.764Z,12.25
2022-10-24T05:28:33.467Z,9.75
2022-10-24T05:33:35.495Z,15.80
2022-10-24T05:38:37.323Z,19.85
2022-10-24T05:43:39.135Z,6.78
2022-10-24T05:48:40.924Z,3.03
2022-10-24T05:53:42.817Z,4.43
2022-10-24T05:58:44.663Z,3.53
2022-10-24T06:03:46.860Z,6.35
2022-10-24T06:08:48.731Z,9.60
2022-10-24T06:13:50.548Z,4.20
2022-10-24T06:18:52.432Z,5.40
2022-10-24T06:23:54.623Z,2.95
2022-10-24T06:28:56.481Z,4.47
2022-10-24T06:33:58.411Z,5.25
2022-10-24T06:39:00.320Z,5.10
2022-10-24T06:44:04.332Z,5.30
2022-10-24T06:49:08.012Z,7.18
2022-10-24T06:54:10.059Z,5.82
2022-10-24T06:59:15.756Z,4.72
2022-10-24T07:04:17.714Z,5.22
2022-10-24T07:09:19.620Z,6.82
2022-10-24T07:14:21.445Z,6.50
2022-10-24T07:19:23.245Z,6.28
2022-10-24T07:24:25.143Z,7.80
2022-10-24T07:29:26.984Z,11.00
2022-10-24T07:34:28.970Z,7.15
2022-10-24T07:39:30.800Z,5.47
2022-10-24T07:44:32.654Z,7.20
2022-10-24T07:49:34.860Z,6.60
2022-10-24T07:54:37.577Z,6.18
2022-10-24T07:59:42.987Z,6.10
2022-10-24T08:04:45.085Z,6.35
2022-10-24T08:09:48.224Z,7.55
2022-10-24T08:14:50.054Z,6.75
2022-10-24T08:19:52.273Z,6.82
2022-10-24T08:24:54.212Z,7.43
2022-10-24T08:29:56.183Z,5.50
2022-10-24T08:34:58.433Z,5.43
2022-10-24T08:40:00.373Z,5.00
2022-10-24T08:45:02.665Z,3.80
2022-10-24T08:50:28.422Z,5.53
2022-10-24T08:55:50.963Z,4.30
2022-10-24T09:00:55.884Z,3.90
2022-10-24T09:06:02.864Z,5.80
2022-10-24T09:11:06.640Z,4.97
2022-10-24T09:16:14.790Z,4.18
2022-10-24T09:21:16.948Z,3.45
2022-10-24T09:26:27.780Z,2.80
2022-10-24T09:31:29.847Z,3.67
2022-10-24T09:36:31.787Z,3.50
2022-10-24T09:41:35.056Z,3.50
2022-10-24T09:46:36.936Z,3.30
2022-10-24T09:51:58.968Z,3.17
2022-10-24T09:57:30.793Z,2.67
2022-10-24T10:02:34.830Z,3.33
2022-10-24T10:07:42.583Z,3.20
2022-10-24T10:12:55.042Z,2.90
2022-10-24T10:18:00.306Z,2.78
2022-10-24T10:23:25.894Z,2.70
2022-10-24T10:28:27.807Z,2.85
2022-10-24T10:33:45.657Z,2.38
2022-10-24T10:38:58.174Z,2.78
2022-10-24T10:44:21.096Z,2.50
2022-10-24T10:49:30.855Z,2.75
2022-10-24T10:54:49.096Z,2.30
2022-10-24T11:00:36.057Z,2.30
2022-10-24T11:05:45.300Z,2.20
2022-10-24T11:10:55.275Z,1.80
2022-10-24T11:16:02.296Z,1.70
2022-10-24T11:21:16.295Z,2.22
2022-10-24T11:26:34.987Z,1.75
2022-10-24T11:31:45.166Z,1.92
2022-10-24T11:42:25.838Z,1.70
2022-10-24T11:47:27.865Z,1.73
2022-10-24T11:52:35.669Z,1.85
2022-10-24T11:57:38.695Z,1.70
2022-10-24T12:03:19.237Z,2.00
2022-10-24T12:08:39.878Z,1.57
2022-10-24T12:13:50.047Z,1.67
2022-10-24T12:18:59.160Z,1.67
2022-10-24T12:24:01.804Z,1.88
2022-10-24T12:29:21.198Z,1.80
2022-10-24T12:34:23.306Z,1.50
2022-10-24T12:39:34.446Z,2.00
2022-10-24T12:44:39.723Z,1.48
2022-10-24T12:49:41.578Z,1.63
2022-10-24T12:54:45.736Z,1.70
2022-10-24T12:59:48.705Z,1.80
2022-10-24T13:05:24.148Z,1.90
2022-10-24T13:10:53.812Z,1.45
2022-10-24T13:16:15.964Z,1.90
2022-10-24T13:21:20.416Z,1.92
2022-10-24T13:26:58.401Z,2.35
2022-10-24T13:32:06.418Z,1.63
2022-10-24T13:37:24.593Z,1.77
2022-10-24T13:42:51.346Z,2.05
2022-10-24T13:47:59.984Z,2.05
2022-10-24T13:53:30.560Z,1.80
2022-10-24T13:58:42.087Z,2.17
2022-10-24T14:03:48.339Z,2.00
2022-10-24T14:09:02.788Z,1.67
2022-10-24T14:14:13.837Z,2.00
2022-10-24T14:19:17.774Z,1.88
2022-10-24T14:24:23.144Z,2.10
2022-10-24T14:29:34.355Z,1.83
2022-10-24T14:34:38.858Z,2.03
2022-10-24T14:39:41.362Z,1.95
2022-10-24T14:44:46.454Z,2.00
2022-10-24T14:49:48.867Z,2.00
2022-10-24T14:55:21.465Z,6.20
2022-10-24T15:00:26.603Z,2.10
2022-10-24T15:05:31.449Z,4.03
2022-10-24T15:10:38.858Z,2.30
2022-10-24T15:15:43.556Z,2.42
2022-10-24T15:20:47.554Z,1.95
2022-10-24T15:26:02.845Z,2.22
2022-10-24T15:31:10.364Z,2.63
2022-10-24T15:36:30.650Z,1.70
2022-10-24T15:41:33.948Z,1.90
2022-10-24T15:46:35.809Z,1.85
2022-10-24T15:51:39.202Z,2.80
2022-10-24T15:56:41.421Z,2.80
2022-10-24T16:01:53.615Z,3.60
2022-10-24T16:06:56.701Z,3.00
2022-10-24T16:11:59.543Z,3.33
2022-10-24T16:17:02.081Z,2.70
2022-10-24T16:22:05.123Z,2.38
2022-10-24T16:27:08.743Z,2.60
2022-10-24T16:32:12.345Z,1.90
2022-10-24T16:37:14.856Z,2.08
2022-10-24T16:42:18.543Z,2.15
2022-10-24T16:47:20.953Z,1.80
2022-10-24T16:52:23.883Z,3.22
2022-10-24T16:57:26.374Z,2.40
2022-10-24T17:02:28.625Z,2.05
2022-10-24T17:07:30.566Z,2.30
2022-10-24T17:12:32.716Z,2.90
2022-10-24T17:17:34.974Z,4.45
2022-10-24T17:22:37.472Z,2.90
2022-10-24T17:27:39.645Z,3.30
2022-10-24T17:32:42.015Z,3.85
2022-10-24T17:38:05.413Z,3.28
2022-10-24T17:43:21.358Z,3.75
2022-10-24T17:48:24.545Z,2.20
2022-10-24T17:53:26.814Z,2.30
2022-10-24T17:58:29.392Z,2.45
2022-10-24T18:03:31.835Z,2.20
2022-10-24T18:08:34.065Z,2.30
2022-10-24T18:13:37.845Z,2.10
2022-10-24T18:18:40.780Z,2.30
2022-10-24T18:23:42.944Z,2.13
2022-10-24T18:28:47.176Z,2.15
2022-10-24T18:33:49.737Z,3.00
2022-10-24T18:38:54.916Z,2.80
2022-10-24T18:43:59.766Z,3.08
2022-10-24T18:49:02.086Z,2.60
2022-10-24T18:54:07.013Z,2.47
2022-10-24T18:59:21.054Z,2.85
2022-10-24T19:04:27.034Z,2.45
2022-10-24T19:09:28.995Z,2.10
2022-10-24T19:14:30.934Z,2.50
2022-10-24T19:19:36.695Z,2.50
2022-10-24T19:24:38.542Z,2.25
2022-10-24T19:29:40.275Z,2.10
2022-10-24T19:34:42.261Z,2.60
2022-10-24T19:39:44.137Z,2.22
2022-10-24T19:49:54.912Z,2.30
2022-10-24T19:54:56.792Z,2.35
2022-10-24T19:59:58.686Z,2.13
2022-10-24T20:05:00.485Z,2.40
2022-10-24T20:10:02.273Z,2.30
2022-10-24T20:15:04.358Z,3.03
2022-10-24T20:20:06.662Z,2.60
2022-10-24T20:25:08.522Z,2.50
2022-10-24T20:30:11.095Z,2.13
2022-10-24T20:35:12.853Z,2.47
2022-10-24T20:40:15.261Z,2.50
2022-10-24T20:45:21.937Z,2.47
2022-10-24T20:50:24.854Z,2.33
2022-10-24T20:55:43.001Z,2.42
2022-10-24T21:00:45.799Z,1.98
2022-10-24T21:05:47.636Z,2.30
2022-10-24T21:10:49.486Z,2.50
2022-10-24T21:15:57.357Z,2.22
2022-10-24T21:20:59.150Z,2.58
2022-10-24T21:26:06.202Z,3.20
2022-10-24T21:31:14.101Z,2.30
2022-10-24T21:36:18.812Z,2.40
2022-10-24T21:41:22.052Z,4.95
2022-10-24T21:46:26.464Z,7.25
2022-10-24T21:51:31.011Z,3.00
2022-10-24T21:56:36.914Z,2.22
2022-10-24T22:01:39.559Z,2.17
2022-10-24T22:06:42.082Z,2.67
2022-10-24T22:11:44.911Z,2.55
2022-10-24T22:16:47.438Z,2.83
2022-10-24T22:21:51.022Z,2.80
2022-10-24T22:26:53.056Z,2.42
2022-10-24T22:31:55.491Z,2.90
2022-10-24T22:37:12.872Z,2.53
2022-10-24T22:42:19.163Z,3.20
2022-10-24T22:47:37.011Z,2.70
2022-10-24T22:52:39.249Z,2.65
2022-10-24T22:57:41.374Z,2.30
2022-10-24T23:02:46.015Z,2.40
2022-10-24T23:07:51.505Z,1.90
2022-10-24T23:12:53.701Z,2.40
2022-10-24T23:17:55.731Z,2.00
2022-10-24T23:23:09.555Z,2.15
2022-10-24T23:28:26.983Z,1.95
2022-10-24T23:33:29.647Z,2.00
2022-10-24T23:38:31.681Z,2.25
2022-10-24T23:43:33.659Z,1.90
2022-10-24T23:48:57.079Z,1.90
2022-10-24T23:53:59.206Z,1.85
2022-10-24T23:59:01.020Z,1.77
